Time;durP1;ratioP1;P1;durP2;ratioP2;P2;SDS_P1;SDS_P2;PMS_P1;PMS_P2;Temp;Humidity;BMP_temperature;BMP_pressure;BME280_temperature;BME280_humidity;BME280_pressure;Samples;Min_cycle;Max_cycle;Signal;HPM_P1;HPM_P2
2023/10/08 00:02:27;;;;;;;;;50.67;39.33;;;;;17.34;100.00;102111.03;5010959;28;45794;-79
2023/10/08 00:04:54;;;;;;;;;46.33;38.00;;;;;17.34;100.00;102122.13;5026039;28;45836;-79
2023/10/08 00:07:28;;;;;;;;;53.00;41.33;;;;;17.25;100.00;102115.13;5014223;28;45879;-78
2023/10/08 00:09:55;;;;;;;;;51.67;40.67;;;;;17.28;100.00;102121.06;5010710;28;45919;-79
2023/10/08 00:12:20;;;;;;;;;51.33;43.67;;;;;17.25;100.00;102118.72;5003290;28;45671;-78
2023/10/08 00:14:49;;;;;;;;;50.00;39.67;;;;;17.22;100.00;102121.94;5018425;28;46137;-77
2023/10/08 00:17:17;;;;;;;;;51.00;41.67;;;;;17.21;100.00;102130.50;5008232;28;45581;-79
2023/10/08 00:19:43;;;;;;;;;53.33;41.33;;;;;17.15;100.00;102120.28;5011294;28;45923;-80
2023/10/08 00:22:13;;;;;;;;;50.33;41.00;;;;;17.07;100.00;102124.16;5008372;28;45788;-79
2023/10/08 00:24:40;;;;;;;;;51.67;40.67;;;;;17.01;100.00;102114.78;4997646;28;45540;-78
2023/10/08 00:27:06;;;;;;;;;51.33;42.00;;;;;17.06;100.00;102134.38;5012376;28;45889;-81
2023/10/08 00:29:32;;;;;;;;;51.00;42.33;;;;;16.90;100.00;102118.22;5013236;28;45497;-79
2023/10/08 00:32:02;;;;;;;;;51.00;39.00;;;;;16.85;100.00;102126.31;5011791;28;45352;-78
2023/10/08 00:34:27;;;;;;;;;45.33;39.33;;;;;16.93;100.00;102137.19;5009918;28;45869;-79
2023/10/08 00:36:52;;;;;;;;;44.67;37.00;;;;;16.88;100.00;102134.22;5013532;28;45754;-78
2023/10/08 00:39:24;;;;;;;;;46.67;36.67;;;;;16.82;100.00;102126.75;5017698;28;45493;-78
2023/10/08 00:41:58;;;;;;;;;39.00;34.33;;;;;16.82;100.00;102127.59;5010827;28;46075;-79
2023/10/08 00:44:37;;;;;;;;;34.00;32.33;;;;;16.70;100.00;102118.25;5011422;28;45472;-77
2023/10/08 00:47:04;;;;;;;;;35.67;30.67;;;;;16.73;100.00;102120.56;5001566;28;45625;-79
2023/10/08 00:57:26;;;;;;;;;34.00;29.00;;;;;16.68;100.00;102124.00;5019694;28;45881;-79
2023/10/08 00:59:55;;;;;;;;;38.67;34.00;;;;;16.63;100.00;102111.84;5011504;28;45534;-79
2023/10/08 01:02:26;;;;;;;;;28.00;27.00;;;;;16.67;100.00;102116.75;5006088;28;45888;-77
2023/10/08 01:04:54;;;;;;;;;34.00;31.00;;;;;16.74;100.00;102130.59;5013547;28;45513;-78
2023/10/08 01:07:20;;;;;;;;;39.33;34.67;;;;;16.66;100.00;102115.06;5012183;28;45577;-79
2023/10/08 01:09:58;;;;;;;;;45.00;37.67;;;;;16.65;100.00;102112.50;5008372;28;45513;-79
2023/10/08 01:15:07;;;;;;;;;47.67;38.00;;;;;16.64;100.00;102113.56;5016697;28;45926;-79
2023/10/08 01:17:32;;;;;;;;;48.00;38.67;;;;;16.67;100.00;102119.53;5017985;28;45464;-77
2023/10/08 01:20:19;;;;;;;;;48.00;40.00;;;;;16.61;100.00;102106.53;5011606;28;48063;-78
2023/10/08 01:22:45;;;;;;;;;49.67;38.00;;;;;16.63;100.00;102118.28;5010256;28;46069;-79
2023/10/08 01:25:10;;;;;;;;;45.00;37.00;;;;;16.56;100.00;102101.66;5012289;28;45940;-77
2023/10/08 01:27:37;;;;;;;;;49.00;39.00;;;;;16.62;100.00;102105.47;5023269;28;46714;-77
2023/10/08 01:30:17;;;;;;;;;48.00;37.00;;;;;16.62;100.00;102101.84;5028326;28;47116;-78
2023/10/08 01:32:44;;;;;;;;;41.00;34.67;;;;;16.55;100.00;102094.41;5012981;28;45834;-78
2023/10/08 01:35:22;;;;;;;;;43.00;35.33;;;;;16.51;100.00;102090.38;5013865;28;45442;-78
2023/10/08 01:37:50;;;;;;;;;45.00;37.33;;;;;16.42;100.00;102084.22;5013766;28;45432;-77
2023/10/08 01:40:16;;;;;;;;;45.67;37.67;;;;;16.52;100.00;102099.53;5005209;28;45525;-77
2023/10/08 01:42:41;;;;;;;;;49.33;38.33;;;;;16.47;100.00;102085.50;5008079;28;45570;-78
2023/10/08 01:45:09;;;;;;;;;49.67;37.67;;;;;16.53;100.00;102102.06;5009522;28;46195;-78
2023/10/08 01:47:35;;;;;;;;;46.67;38.33;;;;;16.48;100.00;102095.47;5011811;28;45603;-79
2023/10/08 01:50:05;;;;;;;;;44.67;39.00;;;;;16.48;100.00;102090.81;5013644;28;46384;-78
2023/10/08 01:52:31;;;;;;;;;48.67;39.33;;;;;16.42;100.00;102084.22;5012541;28;45435;-78
2023/10/08 01:54:57;;;;;;;;;38.67;35.33;;;;;16.45;100.00;102090.38;5021829;28;45810;-77
2023/10/08 01:57:23;;;;;;;;;46.33;37.67;;;;;16.45;100.00;102088.44;5017847;28;47169;-78
2023/10/08 01:59:48;;;;;;;;;37.67;33.67;;;;;16.34;100.00;102081.66;5030868;28;46366;-78
2023/10/08 02:02:15;;;;;;;;;43.00;35.67;;;;;16.34;100.00;102078.88;5015414;28;45569;-78
2023/10/08 02:04:41;;;;;;;;;37.33;33.00;;;;;16.21;100.00;102059.50;5014075;28;45510;-76
2023/10/08 02:07:13;;;;;;;;;39.33;35.67;;;;;16.36;100.00;102081.44;5012591;28;45898;-78
2023/10/08 02:09:39;;;;;;;;;36.67;33.00;;;;;16.31;100.00;102068.25;5011107;28;45518;-78
2023/10/08 02:12:05;;;;;;;;;48.00;37.00;;;;;16.29;100.00;102067.63;5005477;28;45701;-78
2023/10/08 02:14:31;;;;;;;;;36.00;33.33;;;;;16.24;100.00;102053.53;5004041;28;45633;-78
2023/10/08 02:17:01;;;;;;;;;42.33;33.67;;;;;16.32;100.00;102075.50;5005446;28;46690;-78
2023/10/08 02:19:27;;;;;;;;;36.67;31.00;;;;;16.31;100.00;102075.69;5007439;28;45521;-78
2023/10/08 02:21:57;;;;;;;;;38.33;31.67;;;;;16.19;100.00;102054.19;5011073;28;45963;-79
2023/10/08 02:24:24;;;;;;;;;34.67;31.00;;;;;16.28;100.00;102065.06;5013374;28;45462;-78
2023/10/08 02:26:59;;;;;;;;;33.67;31.67;;;;;16.22;100.00;102064.00;5010154;28;45505;-78
2023/10/08 02:29:30;;;;;;;;;32.33;29.67;;;;;16.24;100.00;102064.63;5012112;28;45416;-77
2023/10/08 02:31:59;;;;;;;;;34.33;26.33;;;;;16.19;100.00;102053.34;5005290;28;45685;-77
2023/10/08 02:34:24;;;;;;;;;33.33;32.67;;;;;16.14;100.00;102051.22;5015758;28;45575;-78
2023/10/08 02:36:55;;;;;;;;;34.67;28.67;;;;;16.20;100.00;102061.44;5010478;28;46189;-78
2023/10/08 02:39:26;;;;;;;;;37.33;30.00;;;;;16.19;100.00;102065.25;5010940;28;46017;-77
2023/10/08 02:41:52;;;;;;;;;42.33;35.67;;;;;16.18;100.00;102071.00;5018766;28;45358;-80
2023/10/08 02:44:20;;;;;;;;;36.33;33.00;;;;;16.17;100.00;102074.88;5011417;28;45554;-76
2023/10/08 02:46:47;;;;;;;;;32.67;27.67;;;;;16.02;100.00;102039.94;5011260;28;45630;-78
2023/10/08 02:49:19;;;;;;;;;34.00;26.67;;;;;16.12;100.00;102067.19;5011181;28;47025;-76
2023/10/08 02:51:45;;;;;;;;;27.33;24.33;;;;;16.11;100.00;102050.78;5007710;28;46866;-77
2023/10/08 02:54:44;;;;;;;;;29.00;28.33;;;;;16.13;100.00;102056.97;5011918;28;45520;-76
2023/10/08 02:57:14;;;;;;;;;34.33;32.67;;;;;16.12;100.00;102058.03;5011842;28;45948;-77
2023/10/08 02:59:40;;;;;;;;;34.00;31.00;;;;;16.09;100.00;102062.06;5006519;28;45737;-77
2023/10/08 03:02:21;;;;;;;;;31.33;28.00;;;;;16.02;100.00;102051.03;5012140;28;45911;-77
2023/10/08 03:04:53;;;;;;;;;24.67;21.67;;;;;16.04;100.00;102059.09;5022011;28;45962;-78
2023/10/08 03:07:22;;;;;;;;;29.33;26.00;;;;;16.06;100.00;102063.38;5021132;28;46032;-78
2023/10/08 03:09:50;;;;;;;;;27.67;23.67;;;;;16.04;100.00;102067.41;5010213;28;46178;-77
2023/10/08 03:12:17;;;;;;;;;31.67;26.00;;;;;16.03;100.00;102063.81;4999256;28;45521;-78
2023/10/08 03:15:28;;;;;;;;;27.00;24.67;;;;;15.99;100.00;102058.91;5009531;28;45553;-78
2023/10/08 03:17:37;;;;;;;;;41.00;29.67;;;;;16.14;100.00;102059.53;5002007;28;45508;-78
2023/10/08 03:20:29;;;;;;;;;28.67;24.00;;;;;16.08;100.00;102049.31;5004586;28;48274;-76
2023/10/08 03:22:49;;;;;;;;;34.00;27.67;;;;;16.02;100.00;102056.56;5010032;28;45639;-77
2023/10/08 03:25:20;;;;;;;;;29.00;25.67;;;;;16.06;100.00;102066.13;5009502;28;45714;-78
2023/10/08 03:27:48;;;;;;;;;29.33;22.00;;;;;16.02;100.00;102064.84;5006353;28;46124;-77
2023/10/08 03:30:16;;;;;;;;;26.67;23.33;;;;;15.94;100.00;102051.22;5008875;28;46330;-77
2023/10/08 03:32:45;;;;;;;;;25.67;22.00;;;;;16.01;100.00;102070.59;5017680;28;46057;-80
2023/10/08 03:35:12;;;;;;;;;28.67;27.00;;;;;15.98;100.00;102065.50;5009742;28;45453;-77
2023/10/08 03:37:45;;;;;;;;;31.00;27.00;;;;;15.95;100.00;102077.00;5006686;28;45837;-76
2023/10/08 03:40:25;;;;;;;;;43.33;34.67;;;;;15.90;100.00;102077.63;5005116;28;45583;-77
2023/10/08 03:42:51;;;;;;;;;38.33;32.67;;;;;15.89;100.00;102073.16;5029638;28;45657;-80
2023/10/08 03:45:48;;;;;;;;;48.33;35.33;;;;;15.93;100.00;102077.19;5010397;28;45569;-80
2023/10/08 03:48:06;;;;;;;;;28.33;24.00;;;;;16.02;100.00;102078.69;5010596;28;45917;-78
2023/10/08 03:50:41;;;;;;;;;43.67;33.33;;;;;16.01;100.00;102082.50;5015801;28;46346;-77
2023/10/08 03:53:11;;;;;;;;;36.67;29.00;;;;;15.95;100.00;102077.00;5004862;28;45715;-77
2023/10/08 03:55:40;;;;;;;;;39.67;31.33;;;;;15.85;100.00;102080.16;5008494;28;45564;-77
2023/10/08 03:58:29;;;;;;;;;41.00;34.00;;;;;15.81;100.00;102076.13;5010600;28;45858;-77
2023/10/08 04:06:22;;;;;;;;;28.00;26.00;;;;;15.75;100.00;102076.91;5011765;28;45766;-77
2023/10/08 04:11:55;;;;;;;;;30.00;27.00;;;;;15.77;100.00;102078.44;5009973;28;46270;-78
2023/10/08 04:14:24;;;;;;;;;23.67;19.67;;;;;15.76;100.00;102084.16;5009776;28;45795;-77
2023/10/08 04:16:51;;;;;;;;;33.33;31.00;;;;;15.71;100.00;102082.03;5010693;28;45496;-78
2023/10/08 04:19:25;;;;;;;;;33.00;31.33;;;;;15.66;100.00;102085.44;4999812;28;45599;-78
2023/10/08 04:21:53;;;;;;;;;39.67;33.67;;;;;15.61;100.00;102082.44;5009668;28;45868;-77
2023/10/08 04:24:20;;;;;;;;;33.33;28.67;;;;;15.54;100.00;102084.34;5030064;28;45649;-78
2023/10/08 04:26:46;;;;;;;;;32.00;30.33;;;;;15.44;100.00;102076.44;5018178;28;45639;-78
2023/10/08 04:29:16;;;;;;;;;21.00;19.33;;;;;15.38;100.00;102084.75;5014929;28;45446;-79
2023/10/08 04:31:46;;;;;;;;;24.00;23.00;;;;;15.26;100.00;102079.81;5015002;28;46745;-78
2023/10/08 04:34:15;;;;;;;;;20.00;19.33;;;;;15.19;100.00;102084.44;5013380;28;45756;-78
2023/10/08 04:36:45;;;;;;;;;19.00;19.00;;;;;15.16;100.00;102082.97;5019918;28;45364;-76
2023/10/08 04:39:21;;;;;;;;;21.67;20.33;;;;;15.13;100.00;102079.75;5017693;28;45532;-77
2023/10/08 04:41:48;;;;;;;;;22.33;20.00;;;;;15.06;100.00;102079.72;5012907;28;45812;-78
2023/10/08 04:44:15;;;;;;;;;24.33;22.00;;;;;15.06;100.00;102082.50;5010723;28;45697;-77
2023/10/08 04:46:47;;;;;;;;;27.33;21.67;;;;;14.96;100.00;102063.53;5014385;28;45430;-77
2023/10/08 04:49:28;;;;;;;;;31.67;25.00;;;;;14.93;100.00;102075.00;5014053;28;45956;-78
2023/10/08 04:52:00;;;;;;;;;29.67;26.33;;;;;14.97;100.00;102079.06;5012534;28;45620;-77
2023/10/08 04:54:51;;;;;;;;;33.33;29.00;;;;;14.93;100.00;102065.88;5013789;28;45803;-80
2023/10/08 04:57:15;;;;;;;;;28.67;23.67;;;;;14.92;100.00;102078.81;5011941;28;46042;-77
2023/10/08 04:59:43;;;;;;;;;31.00;24.67;;;;;14.91;100.00;102077.13;5013683;28;46146;-76
2023/10/08 05:02:34;;;;;;;;;25.00;22.33;;;;;14.83;100.00;102075.38;5011511;28;47297;-78
2023/10/08 05:05:21;;;;;;;;;24.33;23.00;;;;;14.83;100.00;102091.09;5015192;28;45466;-80
2023/10/08 05:15:33;;;;;;;;;24.33;22.67;;;;;14.64;100.00;102092.66;5008054;28;45860;-80
2023/10/08 05:18:13;;;;;;;;;30.67;28.33;;;;;14.47;100.00;102075.53;5007193;28;45497;-79
2023/10/08 05:20:44;;;;;;;;;31.33;25.33;;;;;14.55;100.00;102096.63;5020632;28;47157;-83
2023/10/08 05:25:58;;;;;;;;;30.00;26.00;;;;;14.52;100.00;102092.38;5011234;28;45743;-79
2023/10/08 05:28:29;;;;;;;;;25.00;24.67;;;;;14.46;100.00;102080.22;5007548;28;45442;-79
2023/10/08 05:31:05;;;;;;;;;30.67;27.33;;;;;14.45;100.00;102067.47;5014199;28;45356;-80
2023/10/08 05:33:59;;;;;;;;;30.00;27.33;;;;;14.57;100.00;102092.59;5014689;28;48033;-81
2023/10/08 05:36:27;;;;;;;;;35.67;29.67;;;;;14.59;100.00;102086.88;5015775;28;45414;-82
2023/10/08 05:39:16;;;;;;;;;27.00;25.67;;;;;14.46;100.00;102082.13;5014044;28;45906;-83
2023/10/08 05:41:51;;;;;;;;;31.00;28.33;;;;;14.54;100.00;102094.94;5015084;28;44901;-81
2023/10/08 05:47:06;;;;;;;;;32.33;26.67;;;;;14.39;100.00;102084.00;5013131;28;45564;-80
2023/10/08 05:49:38;;;;;;;;;30.00;24.00;;;;;14.36;100.00;102084.41;5013740;28;46237;-81
2023/10/08 05:57:07;;;;;;;;;27.00;26.33;;;;;14.30;100.00;102066.75;5022202;28;45489;-80
2023/10/08 06:11:07;;;;;;;;;27.33;24.67;;;;;14.32;100.00;102061.00;5018187;28;45871;-87
2023/10/08 06:13:55;;;;;;;;;23.67;22.33;;;;;14.36;100.00;102067.84;5011244;28;45663;-79
2023/10/08 06:16:41;;;;;;;;;30.00;25.67;;;;;14.60;100.00;102103.25;5012217;28;45554;-80
2023/10/08 06:19:06;;;;;;;;;30.33;26.33;;;;;14.71;100.00;102117.56;5017209;28;45934;-83
2023/10/08 06:21:33;;;;;;;;;28.33;25.67;;;;;14.44;100.00;102070.44;5025683;28;45981;-82
2023/10/08 06:23:59;;;;;;;;;30.67;24.67;;;;;14.43;100.00;102055.78;5026544;28;45965;-83
2023/10/08 06:26:25;;;;;;;;;20.67;20.67;;;;;14.87;100.00;102116.41;4996876;28;45771;-80
2023/10/08 06:28:57;;;;;;;;;29.67;27.33;;;;;14.82;100.00;102103.22;5007010;28;45584;-82
2023/10/08 06:31:24;;;;;;;;;29.67;28.67;;;;;14.91;100.00;102090.06;5005932;28;45692;-82
2023/10/08 06:33:50;;;;;;;;;30.33;28.33;;;;;15.11;100.00;102106.75;5011296;28;45627;-80
2023/10/08 06:36:16;;;;;;;;;33.33;26.00;;;;;15.27;100.00;102103.63;5010391;28;48190;-80
2023/10/08 06:38:49;;;;;;;;;27.67;25.33;;;;;15.60;100.00;102119.47;5006344;28;45921;-80
2023/10/08 06:41:17;;;;;;;;;32.00;26.00;;;;;15.82;100.00;102119.31;5009786;28;45820;-81
2023/10/08 06:43:51;;;;;;;;;30.00;28.00;;;;;15.84;100.00;102089.53;5017405;28;47195;-81
2023/10/08 06:46:18;;;;;;;;;28.33;25.00;;;;;16.02;100.00;102064.84;5002622;28;45583;-80
2023/10/08 06:48:46;;;;;;;;;28.67;26.00;;;;;16.42;100.00;102098.06;5007250;28;45771;-79
2023/10/08 06:51:17;;;;;;;;;27.67;23.67;;;;;16.57;100.00;102106.13;5004159;28;45980;-79
2023/10/08 06:53:47;;;;;;;;;34.00;26.00;;;;;16.47;100.00;102085.50;5006676;28;45817;-79
2023/10/08 06:56:15;;;;;;;;;29.67;25.67;;;;;16.70;100.00;102127.41;5009604;28;46067;-79
2023/10/08 06:58:53;;;;;;;;;32.33;27.00;;;;;16.74;100.00;102113.97;5005385;28;45747;-79
2023/10/08 07:01:22;;;;;;;;;34.67;31.00;;;;;16.81;100.00;102119.50;5008722;28;45798;-80
2023/10/08 07:03:51;;;;;;;;;33.00;28.00;;;;;16.80;100.00;102112.28;5007788;28;45994;-84
2023/10/08 07:06:31;;;;;;;;;34.67;31.67;;;;;16.81;100.00;102103.75;5009315;28;47967;-78
2023/10/08 07:08:59;;;;;;;;;31.00;26.33;;;;;17.02;100.00;102124.81;5012464;28;45602;-80
2023/10/08 07:11:26;;;;;;;;;32.00;31.33;;;;;17.11;100.00;102125.38;5007196;28;45530;-81
2023/10/08 07:13:52;;;;;;;;;24.33;20.33;;;;;17.25;100.00;102115.13;5006112;28;45544;-80
2023/10/08 07:16:20;;;;;;;;;26.00;25.67;;;;;17.41;100.00;102130.38;5011866;28;46352;-81
2023/10/08 07:18:52;;;;;;;;;32.33;27.00;;;;;17.52;100.00;102128.88;5005608;28;45883;-80
2023/10/08 07:21:18;;;;;;;;;33.00;27.00;;;;;17.57;100.00;102113.22;5004022;28;45731;-80
2023/10/08 07:24:04;;;;;;;;;31.67;30.00;;;;;17.68;100.00;102117.25;5003071;28;46364;-80
2023/10/08 07:26:36;;;;;;;;;35.00;28.67;;;;;17.77;100.00;102121.44;5012868;28;45598;-78
2023/10/08 07:29:08;;;;;;;;;29.00;27.00;;;;;17.81;100.00;102113.50;5009577;28;45921;-80
2023/10/08 07:31:41;;;;;;;;;34.67;29.00;;;;;17.85;100.00;102097.28;5010449;28;45896;-79
2023/10/08 07:34:18;;;;;;;;;38.67;30.33;;;;;18.11;100.00;102127.66;5010850;28;45936;-80
2023/10/08 07:36:47;;;;;;;;;33.67;31.33;;;;;18.13;100.00;102114.38;5017382;28;47346;-79
2023/10/08 07:42:17;;;;;;;;;33.67;30.33;;;;;18.33;100.00;102103.09;5006570;28;45487;-86
2023/10/08 07:44:43;;;;;;;;;34.00;32.67;;;;;18.45;100.00;102119.03;5021655;28;46272;-80
2023/10/08 07:47:14;;;;;;;;;31.00;29.00;;;;;18.58;100.00;102118.03;5007162;28;46531;-81
2023/10/08 07:49:39;;;;;;;;;35.67;32.67;;;;;18.63;100.00;102121.00;5014339;28;45571;-81
2023/10/08 07:52:05;;;;;;;;;32.00;29.00;;;;;18.62;100.00;102103.47;5005128;28;45954;-83
2023/10/08 07:54:34;;;;;;;;;35.00;31.33;;;;;18.81;100.00;102125.72;5005912;28;47409;-79
2023/10/08 07:57:11;;;;;;;;;35.67;30.00;;;;;18.81;100.00;102107.09;5009027;28;45849;-81
2023/10/08 07:59:46;;;;;;;;;38.33;34.00;;;;;18.99;100.00;102122.97;5009632;28;45540;-80
2023/10/08 08:02:17;;;;;;;;;36.00;32.67;;;;;18.95;100.00;102098.66;5004927;28;46536;-81
2023/10/08 08:04:50;;;;;;;;;40.67;33.33;;;;;19.26;100.00;102141.28;5006326;28;46319;-80
2023/10/08 08:07:17;;;;;;;;;35.00;31.67;;;;;19.05;100.00;102102.56;5003669;28;47206;-81
2023/10/08 08:09:50;;;;;;;;;37.50;33.00;;;;;19.24;100.00;102119.25;5028884;28;45859;-81
2023/10/08 08:12:32;;;;;;;;;41.33;34.67;;;;;19.39;100.00;102125.25;5008983;28;45964;-82
2023/10/08 08:14:58;;;;;;;;;47.00;35.67;;;;;19.53;100.00;102128.69;5006733;28;45771;-81
2023/10/08 08:17:24;;;;;;;;;37.33;33.67;;;;;19.68;100.00;102138.56;5008814;28;46767;-81
2023/10/08 08:20:18;;;;;;;;;42.33;35.67;;;;;19.66;100.00;102115.69;5008005;28;45455;-79
2023/10/08 08:22:54;;;;;;;;;35.00;32.00;;;;;19.74;100.00;102120.91;5004280;28;45782;-79
2023/10/08 08:25:34;;;;;;;;;38.33;31.67;;;;;19.85;100.00;102122.94;5009404;28;45711;-79
2023/10/08 08:28:16;;;;;;;;;39.33;34.00;;;;;19.86;100.00;102102.34;5009197;28;46168;-79
2023/10/08 08:30:46;;;;;;;;;34.67;31.67;;;;;20.18;100.00;102141.06;5010231;28;45522;-79
2023/10/08 08:33:12;;;;;;;;;37.67;33.33;;;;;20.25;100.00;102139.03;5009889;28;45501;-80
2023/10/08 08:35:38;;;;;;;;;40.00;34.00;;;;;20.34;100.00;102141.44;5011931;28;45501;-80
2023/10/08 08:38:08;;;;;;;;;37.67;33.00;;;;;20.35;100.00;102134.78;5010095;28;45658;-79
2023/10/08 08:40:34;;;;;;;;;40.33;35.00;;;;;20.31;100.00;102105.69;5012119;28;45804;-80
2023/10/08 08:43:02;;;;;;;;;43.67;34.67;;;;;20.48;100.00;102130.91;5010959;28;45726;-80
2023/10/08 08:45:33;;;;;;;;;55.33;44.00;;;;;20.53;100.00;102117.09;5007245;28;45817;-80
2023/10/08 08:48:00;;;;;;;;;49.67;39.00;;;;;20.78;100.00;102147.56;5008893;28;45604;-79
2023/10/08 08:50:26;;;;;;;;;41.67;34.00;;;;;20.65;100.00;102120.72;5021202;28;45903;-79
2023/10/08 08:52:52;;;;;;;;;39.00;33.00;;;;;20.82;100.00;102148.75;5032093;28;45543;-80
2023/10/08 08:55:20;;;;;;;;;44.67;37.67;;;;;20.87;100.00;102148.00;5020462;28;45905;-81
2023/10/08 08:57:47;;;;;;;;;49.00;38.33;;;;;20.81;100.00;102147.06;4998078;28;46830;-79
2023/10/08 09:00:18;;;;;;;;;48.67;39.00;;;;;20.81;100.00;102127.56;5010412;28;45968;-80
2023/10/08 09:02:47;;;;;;;;;46.00;37.67;;;;;;;;5002949;28;46312;-80
2023/10/08 09:05:25;;;;;;;;;47.00;38.33;;;;;21.12;100.00;102148.59;4998037;28;46037;-80
2023/10/08 09:08:06;;;;;;;;;48.33;41.00;;;;;21.23;100.00;102130.13;5003487;28;45731;-78
2023/10/08 09:10:51;;;;;;;;;49.67;41.00;;;;;21.46;100.00;102139.53;5009245;28;45861;-79
2023/10/08 09:13:22;;;;;;;;;46.67;37.00;;;;;22.34;100.00;102114.09;5005007;28;45981;-80
2023/10/08 09:15:49;;;;;;;;;42.67;35.67;;;;;23.46;100.00;102111.16;5010778;28;46082;-78
2023/10/08 09:18:15;;;;;;;;;55.67;43.67;;;;;24.83;100.00;102137.88;5012665;28;45532;-79
2023/10/08 09:20:44;;;;;;;;;45.00;37.00;;;;;25.84;100.00;102125.66;5008984;28;45718;-81
2023/10/08 09:23:11;;;;;;;;;48.33;37.33;;;;;26.80;100.00;102114.69;5012629;28;45467;-79
2023/10/08 09:25:41;;;;;;;;;50.00;39.67;;;;;27.75;100.00;102132.56;5005195;28;46207;-79
2023/10/08 09:28:08;;;;;;;;;46.67;39.00;;;;;28.61;100.00;102126.56;5005214;28;46295;-78
2023/10/08 09:30:37;;;;;;;;;46.67;38.33;;;;;29.22;100.00;102105.25;5012626;28;45897;-80
2023/10/08 09:33:06;;;;;;;;;64.33;47.67;;;;;30.11;100.00;102114.13;5006983;28;47060;-79
2023/10/08 09:35:32;;;;;;;;;48.67;38.67;;;;;30.85;97.83;102101.19;5009804;28;45845;-79
2023/10/08 09:38:22;;;;;;;;;;;;;;;;;;;;;
2023/10/08 09:40:53;;;;;;;;;41.00;35.67;;;;;32.26;86.26;102088.03;5009878;28;71501;-78
2023/10/08 09:43:19;;;;;;;;;40.33;33.33;;;;;32.86;82.44;102105.72;5007131;28;45806;-79
2023/10/08 09:46:00;;;;;;;;;39.67;33.67;;;;;33.29;77.84;102109.88;5006493;28;45495;-80
2023/10/08 09:48:30;;;;;;;;;45.67;36.67;;;;;33.75;76.35;102088.53;5009148;28;45921;-77
2023/10/08 09:50:59;;;;;;;;;41.00;34.33;;;;;34.28;72.72;102090.16;5008688;28;45573;-77
2023/10/08 09:54:10;;;;;;;;;38.33;33.00;;;;;34.63;69.76;102100.59;5008915;28;45705;-76
2023/10/08 09:56:36;;;;;;;;;40.33;34.33;;;;;35.03;66.67;102076.59;4988659;28;46146;-77
2023/10/08 09:59:02;;;;;;;;;35.33;33.67;;;;;35.26;64.98;102092.22;5002853;28;45508;-77
2023/10/08 10:01:31;;;;;;;;;33.67;30.00;;;;;35.60;62.06;102100.91;5008593;28;46028;-78
2023/10/08 10:03:59;;;;;;;;;37.33;32.33;;;;;35.85;60.34;102087.63;5009644;28;45719;-77
2023/10/08 10:06:28;;;;;;;;;29.67;27.33;;;;;36.08;58.07;102096.63;5008089;28;46206;-76
2023/10/08 10:08:58;;;;;;;;;33.00;30.67;;;;;36.32;57.89;102100.75;5007784;28;45734;-78
2023/10/08 10:11:29;;;;;;;;;28.33;27.33;;;;;36.17;54.99;102068.81;5012144;28;45883;-77
2023/10/08 10:14:00;;;;;;;;;17.25;17.00;;;;;36.42;52.67;102080.31;5023257;28;46027;-79
2023/10/08 10:16:29;;;;;;;;;24.33;21.33;;;;;36.45;50.87;102073.06;5009173;28;45627;-79
2023/10/08 10:19:00;;;;;;;;;29.33;26.33;;;;;36.30;49.99;102078.25;5011249;28;45607;-79
2023/10/08 10:21:46;;;;;;;;;19.50;17.00;;;;;36.22;50.84;102082.84;5018859;28;44904;-79
2023/10/08 10:24:45;;;;;;;;;15.00;15.00;;;;;35.84;50.13;102083.06;5013345;28;45734;-78
2023/10/08 10:27:14;;;;;;;;;20.25;16.00;;;;;35.69;48.38;102088.22;5009837;28;45771;-77
2023/10/08 10:29:48;;;;;;;;;14.50;14.50;;;;;35.48;48.30;102082.53;5009471;28;46024;-79
2023/10/08 10:32:15;;;;;;;;;13.00;12.00;;;;;35.33;48.28;102083.13;5007352;28;46276;-78
2023/10/08 10:34:44;;;;;;;;;16.00;15.50;;;;;34.95;48.94;102059.22;5010228;28;45575;-78
2023/10/08 10:37:23;;;;;;;;;13.00;11.00;;;;;34.78;49.11;102082.97;5006209;28;46008;-80
2023/10/08 10:40:23;;;;;;;;;12.00;11.00;;;;;34.65;48.67;102087.66;5007545;28;46493;-86
2023/10/08 10:42:53;;;;;;;;;11.50;10.50;;;;;33.99;48.91;102055.88;5001943;28;45558;-78
2023/10/08 10:45:38;;;;;;;;;8.00;8.00;;;;;33.67;49.83;102083.63;5006195;28;46152;-79
2023/10/08 10:48:21;;;;;;;;;8.50;8.50;;;;;33.14;50.36;102077.88;5011725;28;45751;-80
2023/10/08 10:56:32;;;;;;;;;12.50;11.25;;;;;32.22;51.25;102087.03;5014159;28;45531;-80
2023/10/08 10:59:27;;;;;;;;;96.25;76.00;;;;;31.93;52.44;102085.44;5005139;28;45475;-79
2023/10/08 11:02:20;;;;;;;;;47.00;34.33;;;;;31.65;53.31;102068.56;5004482;28;46018;-79
2023/10/08 11:04:56;;;;;;;;;20.00;17.50;;;;;31.47;54.62;102078.06;5000804;28;46155;-80
2023/10/08 11:07:24;;;;;;;;;56.33;43.67;;;;;31.32;55.25;102082.06;5009196;28;45893;-80
2023/10/08 11:09:58;;;;;;;;;17.33;16.00;;;;;31.01;54.33;102081.91;5008288;28;45632;-80
2023/10/08 11:12:42;;;;;;;;;12.75;10.50;;;;;30.59;54.34;102065.72;5010973;28;46908;-79
2023/10/08 11:15:15;;;;;;;;;33.67;27.67;;;;;30.24;55.09;102067.19;5010624;28;45944;-79
2023/10/08 11:17:42;;;;;;;;;8.00;8.00;;;;;29.90;55.94;102065.56;5026625;28;45582;-82
2023/10/08 11:20:27;;;;;;;;;60.67;44.67;;;;;29.50;58.79;102060.19;5007112;28;46913;-79
2023/10/08 11:22:53;;;;;;;;;71.33;54.67;;;;;29.29;57.65;102070.97;5007807;28;46538;-81
2023/10/08 11:25:30;;;;;;;;;22.67;17.33;;;;;29.10;57.81;102081.38;5012390;28;45471;-81
2023/10/08 11:28:08;;;;;;;;;14.50;13.50;;;;;28.92;59.58;102075.38;5022504;28;46986;-82
2023/10/08 11:30:35;;;;;;;;;9.50;8.00;;;;;28.64;59.02;102083.63;5012491;28;45699;-83
2023/10/08 11:33:00;;;;;;;;;18.75;13.00;;;;;28.35;60.07;102070.38;5002859;28;45535;-80
2023/10/08 11:35:27;;;;;;;;;7.50;5.75;;;;;28.15;59.64;102070.56;5009167;28;45628;-82
2023/10/08 11:38:00;;;;;;;;;14.75;12.50;;;;;27.89;61.03;102082.03;5010477;28;45543;-81
2023/10/08 11:40:47;;;;;;;;;8.00;8.00;;;;;27.75;61.60;102069.72;5008817;28;46601;-80
2023/10/08 11:43:15;;;;;;;;;27.67;21.67;;;;;27.46;63.05;102056.41;5010245;28;46561;-79
2023/10/08 11:45:48;;;;;;;;;10.00;7.00;;;;;27.37;63.26;102059.00;4999115;28;45766;-80
2023/10/08 11:48:17;;;;;;;;;13.75;10.00;;;;;27.25;63.99;102064.94;5008472;28;45592;-80
2023/10/08 11:50:43;;;;;;;;;7.00;7.00;;;;;27.15;63.67;102050.91;5009493;28;45829;-82
2023/10/08 11:53:11;;;;;;;;;10.00;8.25;;;;;27.10;65.74;102045.31;5007052;28;45823;-80
2023/10/08 11:55:38;;;;;;;;;9.25;6.50;;;;;27.09;65.99;102036.00;5009320;28;45759;-82
2023/10/08 11:58:10;;;;;;;;;9.50;7.50;;;;;26.86;65.75;102017.84;5007340;28;45368;-81
2023/10/08 12:00:44;;;;;;;;;9.00;7.00;;;;;26.81;66.48;102034.72;5008508;28;45466;-82
2023/10/08 12:03:18;;;;;;;;;11.25;8.50;;;;;26.76;66.34;102043.22;4998551;28;46323;-81
2023/10/08 12:05:48;;;;;;;;;7.50;6.00;;;;;26.61;66.70;102025.22;5010129;28;45596;-83
2023/10/08 12:08:22;;;;;;;;;19.00;16.67;;;;;26.37;67.88;101993.22;5008905;28;45492;-83
2023/10/08 12:10:48;;;;;;;;;16.50;13.00;;;;;26.53;67.86;102022.16;5014682;28;45454;-82
2023/10/08 12:13:24;;;;;;;;;14.25;11.00;;;;;26.52;68.70;102032.56;5003149;28;46147;-81
2023/10/08 12:16:12;;;;;;;;;13.00;7.25;;;;;26.13;68.92;101970.50;5015264;28;45656;-82
2023/10/08 12:18:43;;;;;;;;;9.50;7.25;;;;;26.19;68.59;101987.06;5012155;28;45870;-80
2023/10/08 12:21:10;;;;;;;;;10.75;6.75;;;;;26.16;69.38;101992.44;4996094;28;45731;-82
2023/10/08 12:23:38;;;;;;;;;9.00;7.00;;;;;26.22;69.33;101999.72;5007485;28;45594;-82
2023/10/08 12:26:09;;;;;;;;;21.67;16.33;;;;;26.23;69.57;102010.69;5028993;28;45528;-81